Terminal Aerodrome Forecast
Issued by NWS Portland, OR

Home | Current Version | Previous Version | Text Only | Print | Product List | Glossary On
Versions: 1 2 3 4 5 6 7 8 9 10 11 12 13 14 15 16 17 18 19 20 21 22 23 24 25 26
000
FTUS46 KPQR 181421 AAA
TAFTTD
TAF AMD
KTTD 181421Z 1814/1912 VRB02KT P6SM SCT030 OVC045
      TEMPO 1814/1816 -SHRA BKN015 OVC045
     FM181600 VRB03KT P6SM BKN050 OVC070
     FM182000 28004KT P6SM VCSH BKN050 OVC070
     FM190300 VRB03KT P6SM BKN050 OVC070
     FM191100 VRB03KT P6SM BKN025 OVC035=

USA.gov is the U.S. government's official web portal to all federal, state and local government web resources and services.